This is the latest recevied weather packets stored in our database for station/object SP4MAZ-13. If no packets are shown the sender has not sent any weather packets the latest 10 day(s).
| Time | Temp. | Humidity | Pressure | Rain* | Wind** | Luminosity | Snow |
|---|---|---|---|---|---|---|---|
| 1777998646 | 15.56° C | 80% | 2147.4 hPa | - | - | - | - |
| 1777998342 | 15° C | 82% | 2147.4 hPa | - | - | - | - |
| 1777998038 | 15.56° C | 81% | 2147.4 hPa | - | - | - | - |
| 1777997735 | 15.56° C | 79% | 2147.4 hPa | - | - | - | - |
| 1777997432 | 15.56° C | 77% | 2147.4 hPa | - | - | - | - |
| 1777997128 | 16.67° C | 74% | 2147.4 hPa | - | - | - | - |
| 1777996825 | 16.67° C | 78% | 2147.4 hPa | - | - | - | - |
| 1777996521 | 16.11° C | 81% | 2147.4 hPa | - | - | - | - |
| 1777996218 | 15.56° C | 85% | 2147.4 hPa | - | - | - | - |
| 1777995915 | 16.11° C | 81% | 2147.4 hPa | - | - | - | - |
| 1777995611 | 16.67° C | 82% | 2147.4 hPa | - | - | - | - |
| 1777995308 | 16.67° C | 83% | 2147.4 hPa | - | - | - | - |
| 1777994699 | 16.67° C | 80% | 2147.4 hPa | - | - | - | - |
| 1777994395 | 16.67° C | 80% | 2147.4 hPa | - | - | - | - |
| 1777994094 | 16.67° C | 82% | 2147.4 hPa | - | - | - | - |
| 1777993793 | 16.67° C | 82% | 2147.4 hPa | - | - | - | - |
| 1777993490 | 16.11° C | 84% | 2147.4 hPa | - | - | - | - |
| 1777993188 | 16.67° C | 82% | 2147.4 hPa | - | - | - | - |
| 1777992886 | 16.67° C | 83% | 2147.4 hPa | - | - | - | - |
| 1777992582 | 16.67° C | 87% | 2147.4 hPa | - | - | - | - |
| 1777992279 | 16.67° C | 88% | 2147.4 hPa | - | - | - | - |
| 1777991975 | 16.11° C | 91% | 2147.4 hPa | - | - | - | - |
| 1777991671 | 16.67° C | 91% | 2147.4 hPa | - | - | - | - |
| 1777991368 | 16.11° C | 92% | 2147.4 hPa | - | - | - | - |
| 1777991065 | 16.11° C | 95% | 2147.4 hPa | - | - | - | - |
* Rain since midnight (hover to see other rain measurements)
** Current wind speed in m/s (hover to see current wind gust speed)